createdAt,value
2023-08-07T00:00:04.325Z,99471.78
2023-08-07T00:01:08.170Z,99474.56
2023-08-07T00:02:11.317Z,99479.22
2023-08-07T00:03:19.652Z,99475.56
2023-08-07T00:04:22.577Z,99477.09
2023-08-07T00:05:25.306Z,99478.44
2023-08-07T00:06:28.178Z,99473.75
2023-08-07T00:07:31.248Z,99479.88
2023-08-07T00:08:34.373Z,99482.22
2023-08-07T00:09:37.052Z,99448.59
2023-08-07T00:10:40.085Z,99484.34
2023-08-07T00:11:42.850Z,99410.34
2023-08-07T00:12:45.996Z,99486.03
2023-08-07T00:13:48.744Z,99487.00
2023-08-07T00:14:51.878Z,99493.13
2023-08-07T00:15:54.638Z,99496.63
2023-08-07T00:16:57.470Z,99487.28
2023-08-07T00:18:01.579Z,99446.88
2023-08-07T00:19:04.545Z,99495.94
2023-08-07T00:20:08.713Z,99490.09
2023-08-07T00:21:13.229Z,99489.81
2023-08-07T00:22:16.044Z,99495.22
2023-08-07T00:23:19.170Z,99501.38
2023-08-07T00:24:21.939Z,99497.59
2023-08-07T00:25:25.063Z,99500.63
2023-08-07T00:26:27.804Z,99490.84
2023-08-07T00:27:30.558Z,99495.16
2023-08-07T00:28:33.847Z,99495.16
2023-08-07T00:29:37.484Z,99498.28
2023-08-07T00:30:40.311Z,99494.09
2023-08-07T00:31:43.262Z,99497.87
2023-08-07T00:32:46.196Z,99500.53
2023-08-07T00:33:52.954Z,99508.47
2023-08-07T00:34:55.685Z,99509.47
2023-08-07T00:35:58.570Z,99503.47
2023-08-07T00:37:01.439Z,99507.66
2023-08-07T00:38:04.528Z,99510.16
2023-08-07T00:39:08.930Z,99514.59
2023-08-07T00:40:15.905Z,99515.78
2023-08-07T00:41:19.582Z,99514.78
2023-08-07T00:42:22.365Z,99518.41
2023-08-07T00:43:25.236Z,99518.41
2023-08-07T00:44:28.327Z,99515.06
2023-08-07T00:45:35.802Z,99520.06
2023-08-07T00:46:40.469Z,99518.25
2023-08-07T00:47:43.473Z,99501.41
2023-08-07T00:48:47.017Z,99521.19
2023-08-07T00:49:50.310Z,99518.81
2023-08-07T00:50:53.502Z,99490.47
2023-08-07T00:51:56.672Z,99521.47
2023-08-07T00:52:59.965Z,99529.97
2023-08-07T00:54:05.175Z,99517.81
2023-08-07T00:55:08.615Z,99518.56
2023-08-07T00:56:11.508Z,99474.47
2023-08-07T00:57:18.314Z,99519.94
2023-08-07T00:58:21.212Z,99514.81
2023-08-07T00:59:24.101Z,99525.84
2023-08-07T01:00:30.106Z,99513.06
2023-08-07T01:01:33.037Z,99527.06
2023-08-07T01:02:36.654Z,99517.16
2023-08-07T01:03:39.789Z,99519.81
2023-08-07T01:04:42.569Z,99516.75
2023-08-07T01:05:45.657Z,99525.69
2023-08-07T01:06:48.394Z,99523.19
2023-08-07T01:07:55.527Z,99519.25
2023-08-07T01:08:58.844Z,99519.84
2023-08-07T01:10:05.016Z,99527.78
2023-08-07T01:11:26.442Z,99527.87
2023-08-07T01:12:37.398Z,99525.59
2023-08-07T01:14:01.778Z,99533.97
2023-08-07T01:15:29.397Z,99530.72
2023-08-07T01:17:06.543Z,99531.91
2023-08-07T01:18:09.369Z,99529.97
2023-08-07T01:19:26.187Z,99542.91
2023-08-07T01:20:28.964Z,99544.56
2023-08-07T01:21:33.864Z,99540.41
2023-08-07T01:22:36.933Z,99535.13
2023-08-07T01:23:39.816Z,99540.25
2023-08-07T01:24:45.121Z,99541.63
2023-08-07T01:25:47.831Z,99544.81
2023-08-07T01:26:51.727Z,99545.41
2023-08-07T01:28:03.430Z,99548.06
2023-08-07T01:29:14.933Z,99547.06
2023-08-07T01:30:36.801Z,99550.72
2023-08-07T01:31:43.215Z,99533.19
2023-08-07T01:32:45.930Z,99540.78
2023-08-07T01:33:58.152Z,99541.47
2023-08-07T01:35:06.683Z,99544.13
2023-08-07T01:36:11.952Z,99547.78
2023-08-07T01:37:14.894Z,99551.91
2023-08-07T01:38:17.916Z,99543.31
2023-08-07T01:39:21.658Z,99558.66
2023-08-07T01:40:24.897Z,99544.47
2023-08-07T01:41:29.970Z,99551.44
2023-08-07T01:42:33.627Z,99554.91
2023-08-07T01:43:36.897Z,99554.38
2023-08-07T01:44:40.330Z,99552.41
2023-08-07T01:45:43.188Z,99556.78
2023-08-07T01:46:46.049Z,99549.50
2023-08-07T01:47:48.930Z,99551.78
2023-08-07T01:48:51.765Z,99546.47
2023-08-07T01:49:54.954Z,99545.91
2023-08-07T01:50:57.784Z,99547.59
2023-08-07T01:52:00.500Z,99543.97
2023-08-07T01:53:04.860Z,99549.50
2023-08-07T01:54:07.645Z,99548.97
2023-08-07T01:55:10.756Z,99557.19
2023-08-07T01:56:13.420Z,99506.09
2023-08-07T01:57:16.417Z,99556.66
2023-08-07T01:58:19.189Z,99540.94
2023-08-07T01:59:21.993Z,99554.03
2023-08-07T02:00:25.037Z,99565.75
2023-08-07T02:01:27.607Z,99562.81
2023-08-07T02:02:30.821Z,99569.38
2023-08-07T02:03:33.782Z,99569.38
2023-08-07T02:04:37.034Z,99571.16
2023-08-07T02:05:39.906Z,99568.22
2023-08-07T02:06:42.770Z,99568.69
2023-08-07T02:07:46.082Z,99567.69
2023-08-07T02:08:48.833Z,99569.09
2023-08-07T02:09:52.122Z,99563.41
2023-08-07T02:10:54.996Z,99566.31
2023-08-07T02:11:57.705Z,99569.25
2023-08-07T02:13:00.785Z,99543.94
2023-08-07T02:14:04.058Z,99571.06
2023-08-07T02:15:07.477Z,99567.84
2023-08-07T02:16:10.371Z,99568.56
2023-08-07T02:17:13.519Z,99577.88
2023-08-07T02:18:17.234Z,99579.72
2023-08-07T02:19:21.148Z,99576.53
2023-08-07T02:20:23.923Z,99563.03
2023-08-07T02:21:26.649Z,99572.34
2023-08-07T02:22:29.724Z,99572.88
2023-08-07T02:23:32.445Z,99565.22
2023-08-07T02:24:37.172Z,99568.88
2023-08-07T02:25:39.880Z,99570.00
2023-08-07T02:26:42.652Z,99562.91
2023-08-07T02:27:45.894Z,99570.81
2023-08-07T02:28:48.641Z,99568.16
2023-08-07T02:29:52.294Z,99572.75
2023-08-07T02:30:55.559Z,99572.66
2023-08-07T02:31:58.418Z,99575.00
2023-08-07T02:33:01.546Z,99580.31
2023-08-07T02:34:04.361Z,99581.13
2023-08-07T02:35:08.161Z,99582.78
2023-08-07T02:36:11.031Z,99582.94
2023-08-07T02:37:13.948Z,99589.34
2023-08-07T02:38:17.096Z,99583.50
2023-08-07T02:39:19.948Z,99587.28
2023-08-07T02:40:22.720Z,99587.81
2023-08-07T02:41:25.487Z,99537.56
2023-08-07T02:42:28.310Z,99589.19
2023-08-07T02:43:34.191Z,99594.59
2023-08-07T02:44:37.089Z,99586.12
2023-08-07T02:45:39.937Z,99594.75
2023-08-07T02:46:42.742Z,99595.75
2023-08-07T02:47:45.535Z,99593.38
2023-08-07T02:48:48.679Z,99589.03
2023-08-07T02:49:51.474Z,99590.28
2023-08-07T02:50:54.748Z,99590.56
2023-08-07T02:51:57.512Z,99591.97
2023-08-07T02:53:01.937Z,99577.91
2023-08-07T02:54:05.312Z,99595.31
2023-08-07T02:55:08.460Z,99588.34
2023-08-07T02:56:11.924Z,99578.59
2023-08-07T02:57:14.850Z,99586.84
2023-08-07T02:58:17.619Z,99593.94
2023-08-07T02:59:20.853Z,99592.13
2023-08-07T03:00:25.365Z,99588.91
2023-08-07T03:01:28.924Z,99586.66
2023-08-07T03:02:31.766Z,99588.19
2023-08-07T03:03:34.517Z,99593.22
2023-08-07T03:04:37.679Z,99595.84
2023-08-07T03:05:40.451Z,99598.50
2023-08-07T03:06:43.320Z,99601.06
2023-08-07T03:07:46.120Z,99599.50
2023-08-07T03:08:48.924Z,99606.00
2023-08-07T03:09:52.355Z,99599.78
2023-08-07T03:10:57.382Z,99606.00
2023-08-07T03:12:04.707Z,99606.44
2023-08-07T03:13:08.300Z,99607.00
2023-08-07T03:14:11.448Z,99610.47
2023-08-07T03:15:14.562Z,99582.37
2023-08-07T03:16:17.462Z,99612.72
2023-08-07T03:17:21.879Z,99614.53
2023-08-07T03:18:24.819Z,99610.06
2023-08-07T03:19:27.580Z,99613.53
2023-08-07T03:20:30.717Z,99610.88
2023-08-07T03:21:33.494Z,99616.59
2023-08-07T03:22:36.259Z,99612.28
2023-08-07T03:23:39.037Z,99613.50
2023-08-07T03:24:41.991Z,99617.81
2023-08-07T03:25:45.088Z,99628.53
2023-08-07T03:26:50.344Z,99612.41
2023-08-07T03:27:53.261Z,99628.91
2023-08-07T03:28:55.962Z,99615.16
2023-08-07T03:29:58.787Z,99621.84
2023-08-07T03:31:02.800Z,99626.87
2023-08-07T03:32:05.970Z,99628.53
2023-08-07T03:33:09.521Z,99630.63
2023-08-07T03:34:12.839Z,99630.19
2023-08-07T03:35:15.805Z,99626.72
2023-08-07T03:36:19.107Z,99633.41
2023-08-07T03:37:21.822Z,99636.06
2023-08-07T03:38:24.534Z,99628.53
2023-08-07T03:39:27.912Z,99626.87
2023-08-07T03:40:30.706Z,99624.09
2023-08-07T03:41:33.784Z,99624.78
2023-08-07T03:42:36.770Z,99629.91
2023-08-07T03:43:39.613Z,99640.66
2023-08-07T03:44:42.445Z,99628.97
2023-08-07T03:45:45.275Z,99630.78
2023-08-07T03:46:48.613Z,99644.00
2023-08-07T03:47:51.395Z,99635.09
2023-08-07T03:48:54.209Z,99633.81
2023-08-07T03:49:57.174Z,99631.19
2023-08-07T03:51:07.057Z,99648.75
2023-08-07T03:52:11.372Z,99656.66
2023-08-07T03:53:14.338Z,99652.31
2023-08-07T03:54:17.524Z,99655.12
2023-08-07T03:55:20.813Z,99662.06
2023-08-07T03:56:23.586Z,99652.03
2023-08-07T03:57:27.277Z,99660.69
2023-08-07T03:58:30.661Z,99641.06
2023-08-07T03:59:33.990Z,99651.22
2023-08-07T04:00:36.974Z,99658.06
2023-08-07T04:01:40.154Z,99652.47
2023-08-07T04:02:43.012Z,99658.59
2023-08-07T04:03:48.860Z,99657.91
2023-08-07T04:04:51.794Z,99652.50
2023-08-07T04:05:55.311Z,99658.59
2023-08-07T04:06:58.732Z,99650.13
2023-08-07T04:08:01.448Z,99656.56
2023-08-07T04:09:04.766Z,99659.31
2023-08-07T04:10:07.695Z,99666.00
2023-08-07T04:11:11.909Z,99660.31
2023-08-07T04:12:15.142Z,99667.13
2023-08-07T04:13:17.861Z,99665.44
2023-08-07T04:14:20.588Z,99666.16
2023-08-07T04:15:23.563Z,99660.16
2023-08-07T04:16:26.486Z,99666.41
2023-08-07T04:17:30.233Z,99659.31
2023-08-07T04:18:34.082Z,99653.88
2023-08-07T04:19:37.460Z,99643.56
2023-08-07T04:20:40.699Z,99659.75
2023-08-07T04:21:43.413Z,99654.69
2023-08-07T04:22:47.265Z,99663.78
2023-08-07T04:23:50.129Z,99660.03
2023-08-07T04:24:52.903Z,99658.91
2023-08-07T04:25:56.090Z,99664.06
2023-08-07T04:26:58.896Z,99661.03
2023-08-07T04:28:02.041Z,99666.34
2023-08-07T04:29:05.237Z,99665.91
2023-08-07T04:30:08.635Z,99665.50
2023-08-07T04:31:11.997Z,99659.66
2023-08-07T04:32:14.937Z,99661.31
2023-08-07T04:33:18.427Z,99668.00
2023-08-07T04:34:21.164Z,99670.34
2023-08-07T04:35:23.819Z,99661.03
2023-08-07T04:36:26.495Z,99673.00
2023-08-07T04:37:31.465Z,99657.78
2023-08-07T04:38:35.328Z,99665.72
2023-08-07T04:39:38.038Z,99660.16
2023-08-07T04:40:45.527Z,99662.38
2023-08-07T04:41:50.842Z,99664.19
2023-08-07T04:42:53.621Z,99667.53
2023-08-07T04:43:56.741Z,99667.50
2023-08-07T04:44:59.429Z,99672.94
2023-08-07T04:46:02.241Z,99671.41
2023-08-07T04:47:05.313Z,99675.34
2023-08-07T04:48:08.992Z,99680.75
2023-08-07T04:49:12.041Z,99670.44
2023-08-07T04:50:14.705Z,99628.84
2023-08-07T04:51:17.326Z,99673.06
2023-08-07T04:52:25.945Z,99679.06
2023-08-07T04:53:29.629Z,99684.53
2023-08-07T04:54:33.146Z,99682.25
2023-08-07T04:55:36.202Z,99679.59
2023-08-07T04:56:39.090Z,99678.06
2023-08-07T04:57:41.732Z,99679.03
2023-08-07T04:58:44.553Z,99685.78
2023-08-07T04:59:47.547Z,99684.22
2023-08-07T05:00:58.524Z,99695.41
2023-08-07T05:02:01.284Z,99693.84
2023-08-07T05:03:04.150Z,99689.41
2023-08-07T05:04:06.998Z,99690.00
2023-08-07T05:05:10.874Z,99692.47
2023-08-07T05:06:13.681Z,99691.06
2023-08-07T05:07:16.463Z,99690.22
2023-08-07T05:08:19.083Z,99693.28
2023-08-07T05:09:21.793Z,99690.19
2023-08-07T05:10:24.758Z,99698.72
2023-08-07T05:11:27.522Z,99658.19
2023-08-07T05:12:30.771Z,99700.81
2023-08-07T05:13:33.443Z,99698.72
2023-08-07T05:14:36.099Z,99695.78
2023-08-07T05:15:39.097Z,99651.81
2023-08-07T05:16:41.839Z,99688.59
2023-08-07T05:17:44.566Z,99691.34
2023-08-07T05:18:49.262Z,99688.84
2023-08-07T05:19:53.824Z,99694.72
2023-08-07T05:20:56.865Z,99688.00
2023-08-07T05:21:59.504Z,99690.81
2023-08-07T05:23:02.157Z,99691.34
2023-08-07T05:24:06.071Z,99525.06
2023-08-07T05:25:10.439Z,99620.37
2023-08-07T05:26:13.380Z,99690.09
2023-08-07T05:27:16.490Z,99693.59
2023-08-07T05:28:19.152Z,99690.22
2023-08-07T05:29:22.017Z,99637.19
2023-08-07T05:30:24.720Z,99692.84
2023-08-07T05:31:29.643Z,99664.91
2023-08-07T05:32:34.043Z,99649.00
2023-08-07T05:33:36.868Z,99693.12
2023-08-07T05:34:40.333Z,99693.81
2023-08-07T05:35:43.015Z,99680.44
2023-08-07T05:36:45.934Z,99687.25
2023-08-07T05:37:48.624Z,99694.47
2023-08-07T05:38:51.269Z,99647.25
2023-08-07T05:39:54.482Z,99682.53
2023-08-07T05:41:00.205Z,99680.87
2023-08-07T05:42:03.568Z,99687.28
2023-08-07T05:43:06.213Z,99676.00
2023-08-07T05:44:08.952Z,99694.53
2023-08-07T05:45:11.970Z,99695.78
2023-08-07T05:46:14.575Z,99705.72
2023-08-07T05:47:17.589Z,99692.16
2023-08-07T05:48:20.266Z,99701.59
2023-08-07T05:49:25.534Z,99695.87
2023-08-07T05:50:29.232Z,99703.31
2023-08-07T05:51:32.015Z,99701.59
2023-08-07T05:52:35.149Z,99701.19
2023-08-07T05:53:38.240Z,99709.47
2023-08-07T05:54:41.003Z,99682.03
2023-08-07T05:55:43.740Z,99709.53
2023-08-07T05:56:46.527Z,99708.78
2023-08-07T05:57:51.302Z,99712.00
2023-08-07T05:58:53.973Z,99711.19
2023-08-07T05:59:56.673Z,99693.28
2023-08-07T06:00:59.462Z,99715.44
2023-08-07T06:02:02.696Z,99716.97
2023-08-07T06:03:05.674Z,99692.25
2023-08-07T06:04:08.908Z,99724.66
2023-08-07T06:05:14.062Z,99730.00
2023-08-07T06:06:16.909Z,99724.31
2023-08-07T06:07:19.963Z,99721.88
2023-08-07T06:08:23.134Z,99726.34
2023-08-07T06:09:28.374Z,99697.25
2023-08-07T06:10:31.550Z,99728.59
2023-08-07T06:11:34.484Z,99717.94
2023-08-07T06:12:37.773Z,99708.59
2023-08-07T06:13:42.283Z,99726.03
2023-08-07T06:14:45.304Z,99730.72
2023-08-07T06:15:48.133Z,99729.06
2023-08-07T06:16:50.791Z,99725.38
2023-08-07T06:17:54.262Z,99730.88
2023-08-07T06:18:57.152Z,99730.22
2023-08-07T06:20:00.570Z,99735.13
2023-08-07T06:21:03.750Z,99733.19
2023-08-07T06:22:06.650Z,99738.44
2023-08-07T06:23:09.516Z,99734.34
2023-08-07T06:24:12.478Z,99740.47
2023-08-07T06:25:15.379Z,99722.88
2023-08-07T06:26:18.105Z,99742.03
2023-08-07T06:27:23.600Z,99679.56
2023-08-07T06:28:27.213Z,99738.06
2023-08-07T06:29:30.672Z,99714.25
2023-08-07T06:30:35.827Z,99735.56
2023-08-07T06:31:38.696Z,99703.69
2023-08-07T06:32:41.545Z,99738.31
2023-08-07T06:33:44.706Z,99702.50
2023-08-07T06:34:47.973Z,99734.13
2023-08-07T06:35:53.962Z,99735.09
2023-08-07T06:36:57.045Z,99748.75
2023-08-07T06:38:03.259Z,99737.44
2023-08-07T06:39:06.611Z,99751.41
2023-08-07T06:40:11.038Z,99718.19
2023-08-07T06:41:14.333Z,99747.25
2023-08-07T06:42:20.021Z,99717.78
2023-08-07T06:43:23.244Z,99702.56
2023-08-07T06:44:27.259Z,99747.75
2023-08-07T06:45:30.008Z,99726.41
2023-08-07T06:46:33.272Z,99753.38
2023-08-07T06:47:36.109Z,99756.25
2023-08-07T06:48:39.046Z,99723.75
2023-08-07T06:49:45.253Z,99688.28
2023-08-07T06:50:49.112Z,99752.34
2023-08-07T06:51:52.153Z,99753.78
2023-08-07T06:52:55.542Z,99743.00
2023-08-07T06:54:02.787Z,99694.56
2023-08-07T06:55:09.116Z,99759.69
2023-08-07T06:56:12.105Z,99754.53
2023-08-07T06:57:15.167Z,99757.41
2023-08-07T06:58:18.388Z,99745.41
2023-08-07T06:59:21.882Z,99757.03
2023-08-07T07:00:24.972Z,99758.91
2023-08-07T07:01:27.675Z,99728.19
2023-08-07T07:02:30.590Z,99757.75
2023-08-07T07:03:33.666Z,99750.22
2023-08-07T07:04:38.033Z,99749.31
2023-08-07T07:05:44.252Z,99754.00
2023-08-07T07:06:47.456Z,99754.22
2023-08-07T07:07:50.442Z,99751.91
2023-08-07T07:08:56.705Z,99758.69
2023-08-07T07:10:01.873Z,99724.31
2023-08-07T07:11:06.451Z,99759.22
2023-08-07T07:12:09.759Z,99764.34
2023-08-07T07:13:12.379Z,99760.69
2023-08-07T07:14:15.195Z,99706.78
2023-08-07T07:15:18.414Z,99759.47
2023-08-07T07:16:23.409Z,99765.44
2023-08-07T07:17:28.657Z,99771.25
2023-08-07T07:18:31.381Z,99762.75
2023-08-07T07:19:34.584Z,99762.38
2023-08-07T07:20:37.271Z,99722.72
2023-08-07T07:21:40.425Z,99763.94
2023-08-07T07:22:43.108Z,99764.59
2023-08-07T07:23:45.859Z,99765.28
2023-08-07T07:24:49.020Z,99768.75
2023-08-07T07:25:51.858Z,99754.28
2023-08-07T07:26:55.156Z,99772.47
2023-08-07T07:27:58.199Z,99765.47
2023-08-07T07:29:01.273Z,99771.97
2023-08-07T07:30:04.253Z,99756.44
2023-08-07T07:31:09.741Z,99771.63
2023-08-07T07:32:12.914Z,99760.78
2023-08-07T07:33:15.961Z,99764.78
2023-08-07T07:34:18.642Z,99770.78
2023-08-07T07:35:21.474Z,99772.13
2023-08-07T07:36:24.402Z,99770.66
2023-08-07T07:37:27.609Z,99766.81
2023-08-07T07:38:30.766Z,99725.53
2023-08-07T07:39:35.813Z,99759.19
2023-08-07T07:40:39.076Z,99771.50
2023-08-07T07:41:41.691Z,99763.22
2023-08-07T07:42:44.709Z,99767.78
2023-08-07T07:43:48.249Z,99765.66
2023-08-07T07:44:50.971Z,99764.28
2023-08-07T07:45:53.828Z,99752.47
2023-08-07T07:46:56.688Z,99767.75
2023-08-07T07:48:00.131Z,99775.94
2023-08-07T07:49:04.838Z,99723.59
2023-08-07T07:50:10.184Z,99781.59
2023-08-07T07:51:12.948Z,99771.13
2023-08-07T07:52:16.448Z,99765.31
2023-08-07T07:53:19.745Z,99768.00
2023-08-07T07:54:22.608Z,99762.28
2023-08-07T07:55:27.091Z,99775.44
2023-08-07T07:56:29.992Z,99777.81
2023-08-07T07:57:32.710Z,99780.97
2023-08-07T07:58:36.019Z,99784.75
2023-08-07T07:59:38.890Z,99772.09
2023-08-07T08:00:42.170Z,99772.78
2023-08-07T08:01:45.358Z,99775.78
2023-08-07T08:02:48.280Z,99779.13
2023-08-07T08:03:51.183Z,99786.47
2023-08-07T08:04:57.528Z,99792.12
2023-08-07T08:06:01.262Z,99792.63
2023-08-07T08:07:05.134Z,99792.31
2023-08-07T08:08:11.641Z,99787.75
2023-08-07T08:09:14.393Z,99793.97
2023-08-07T08:10:17.587Z,99796.13
2023-08-07T08:11:20.373Z,99793.28
2023-08-07T08:12:23.546Z,99759.41
2023-08-07T08:13:26.784Z,99798.13
2023-08-07T08:14:31.627Z,99797.28
2023-08-07T08:15:40.362Z,99795.91
2023-08-07T08:16:43.138Z,99749.66
2023-08-07T08:17:46.232Z,99784.69
2023-08-07T08:18:48.995Z,99795.06
2023-08-07T08:19:51.910Z,99777.44
2023-08-07T08:20:55.390Z,99802.22
2023-08-07T08:21:58.372Z,99805.09
2023-08-07T08:23:01.681Z,99798.91
2023-08-07T08:24:05.690Z,99796.06
2023-08-07T08:25:09.112Z,99769.91
2023-08-07T08:26:11.826Z,99805.06
2023-08-07T08:27:14.600Z,99805.44
2023-08-07T08:28:18.745Z,99806.78
2023-08-07T08:29:21.477Z,99800.41
2023-08-07T08:30:24.262Z,99807.88
2023-08-07T08:31:27.028Z,99766.69
2023-08-07T08:32:29.968Z,99813.84
2023-08-07T08:33:32.961Z,99808.75
2023-08-07T08:34:35.672Z,99809.87
2023-08-07T08:35:38.348Z,99766.09
2023-08-07T08:36:44.249Z,99809.00
2023-08-07T08:37:47.053Z,99813.31
2023-08-07T08:38:50.113Z,99811.97
2023-08-07T08:39:52.734Z,99817.34
2023-08-07T08:40:55.384Z,99815.88
2023-08-07T08:41:59.003Z,99815.03
2023-08-07T08:43:02.326Z,99811.88
2023-08-07T08:44:07.432Z,99806.06
2023-08-07T08:45:13.703Z,99816.91
2023-08-07T08:46:19.809Z,99812.13
2023-08-07T08:47:27.687Z,99816.91
2023-08-07T08:48:32.696Z,99788.34
2023-08-07T08:49:46.998Z,99816.25
2023-08-07T08:50:51.494Z,99821.06
2023-08-07T08:51:54.774Z,99807.22
2023-08-07T08:52:58.271Z,99782.56
2023-08-07T08:54:02.935Z,99817.94
2023-08-07T08:55:07.818Z,99819.06
2023-08-07T08:56:10.934Z,99817.94
2023-08-07T08:57:14.292Z,99817.19
2023-08-07T08:58:17.924Z,99802.53
2023-08-07T08:59:22.831Z,99818.75
2023-08-07T09:00:27.170Z,99818.66
2023-08-07T09:01:31.849Z,99801.94
2023-08-07T09:02:35.305Z,99816.41
2023-08-07T09:03:40.906Z,99811.69
2023-08-07T09:04:45.838Z,99817.34
2023-08-07T09:05:53.870Z,99800.56
2023-08-07T09:06:58.618Z,99822.25
2023-08-07T09:08:02.567Z,99819.03
2023-08-07T09:09:06.343Z,99816.91
2023-08-07T09:10:12.524Z,99807.72
2023-08-07T09:11:16.042Z,99821.84
2023-08-07T09:12:24.225Z,99820.44
2023-08-07T09:13:29.393Z,99813.62
2023-08-07T09:14:38.173Z,99812.53
2023-08-07T09:15:41.227Z,99801.56
2023-08-07T09:16:49.495Z,99812.56
2023-08-07T09:17:53.980Z,99809.31
2023-08-07T09:18:56.768Z,99779.22
2023-08-07T09:20:00.346Z,99818.72
2023-08-07T09:21:03.508Z,99814.25
2023-08-07T09:22:07.814Z,99814.44
2023-08-07T09:23:10.569Z,99809.09
2023-08-07T09:24:13.565Z,99805.91
2023-08-07T09:25:27.345Z,99800.41
2023-08-07T09:26:30.234Z,99770.75
2023-08-07T09:27:34.326Z,99663.16
2023-08-07T09:28:37.306Z,99809.00
2023-08-07T09:29:41.293Z,99809.22
2023-08-07T09:30:45.558Z,99818.22
2023-08-07T09:31:48.936Z,99818.69
2023-08-07T09:32:51.957Z,99820.88
2023-08-07T09:33:54.721Z,99824.09
2023-08-07T09:34:57.537Z,99815.75
2023-08-07T09:36:02.081Z,99824.56
2023-08-07T09:37:04.955Z,99821.38
2023-08-07T09:38:09.086Z,99822.31
2023-08-07T09:39:12.803Z,99820.59
2023-08-07T09:40:17.093Z,99823.00
2023-08-07T09:41:22.915Z,99827.41
2023-08-07T09:42:25.660Z,99827.34
2023-08-07T09:43:29.574Z,99826.56
2023-08-07T09:44:38.696Z,99825.09
2023-08-07T09:45:41.408Z,99812.81
2023-08-07T09:46:45.534Z,99790.53
2023-08-07T09:47:58.175Z,99830.56
2023-08-07T09:49:01.321Z,99782.66
2023-08-07T09:50:04.313Z,99816.63
2023-08-07T09:51:07.207Z,99821.97
2023-08-07T09:52:12.162Z,99826.84
2023-08-07T09:53:14.851Z,99828.13
2023-08-07T09:54:17.832Z,99821.69
2023-08-07T09:55:20.728Z,99830.59
2023-08-07T09:56:23.527Z,99821.50
2023-08-07T09:57:26.866Z,99821.75
2023-08-07T09:58:30.480Z,99827.50
2023-08-07T09:59:34.432Z,99826.97
2023-08-07T10:00:37.206Z,99825.41
2023-08-07T10:01:41.532Z,99830.94
2023-08-07T10:02:44.571Z,99824.06
2023-08-07T10:03:47.653Z,99831.81
2023-08-07T10:04:51.856Z,99836.06
2023-08-07T10:05:55.100Z,99828.91
2023-08-07T10:06:59.002Z,99836.16
2023-08-07T10:08:02.332Z,99825.66
2023-08-07T10:09:05.298Z,99834.44
2023-08-07T10:10:09.267Z,99834.41
2023-08-07T10:11:12.803Z,99835.03
2023-08-07T10:12:18.048Z,99841.00
2023-08-07T10:13:28.074Z,99833.66
2023-08-07T10:14:43.031Z,99841.59
2023-08-07T10:15:46.559Z,99838.56
2023-08-07T10:16:50.645Z,99835.38
2023-08-07T10:17:53.847Z,99841.63
2023-08-07T10:18:56.885Z,99844.78
2023-08-07T10:19:59.818Z,99849.22
2023-08-07T10:21:06.863Z,99790.84
2023-08-07T10:22:09.726Z,99833.59
2023-08-07T10:23:14.060Z,99845.94
2023-08-07T10:24:17.410Z,99836.66
2023-08-07T10:25:23.909Z,99846.44
2023-08-07T10:26:27.595Z,99844.16
2023-08-07T10:27:37.264Z,99830.50
2023-08-07T10:28:42.782Z,99843.44
2023-08-07T10:29:48.705Z,99831.50
2023-08-07T10:30:52.145Z,99837.78
2023-08-07T10:31:55.620Z,99841.28
2023-08-07T10:32:59.672Z,99800.84
2023-08-07T10:34:03.387Z,99842.72
2023-08-07T10:35:06.681Z,99851.53
2023-08-07T10:36:11.303Z,99849.56
2023-08-07T10:37:33.075Z,99851.44
2023-08-07T10:38:36.818Z,99860.00
2023-08-07T10:40:04.142Z,99807.94
2023-08-07T10:41:08.992Z,99857.69
2023-08-07T10:42:13.237Z,99856.41
2023-08-07T10:43:19.024Z,99805.66
2023-08-07T10:44:34.902Z,99821.38
2023-08-07T10:45:38.070Z,99853.84
2023-08-07T10:46:58.006Z,99863.59
2023-08-07T10:48:12.002Z,99861.00
2023-08-07T10:49:33.375Z,99866.47
2023-08-07T10:50:49.836Z,99870.38
2023-08-07T10:51:53.154Z,99878.69
2023-08-07T10:52:55.792Z,99879.66
2023-08-07T10:53:58.522Z,99874.72
2023-08-07T10:55:01.158Z,99878.28
2023-08-07T10:56:05.288Z,99877.91
2023-08-07T10:57:11.746Z,99883.81
2023-08-07T10:58:37.502Z,99880.91
2023-08-07T10:59:44.860Z,99887.75
2023-08-07T11:00:47.528Z,99884.41
2023-08-07T11:01:56.928Z,99881.53
2023-08-07T11:03:02.107Z,99881.94
2023-08-07T11:04:11.200Z,99881.53
2023-08-07T11:05:14.154Z,99886.19
2023-08-07T11:06:18.409Z,99896.53
2023-08-07T11:07:28.521Z,99859.47
2023-08-07T11:08:31.952Z,99886.94
2023-08-07T11:09:35.119Z,99877.81
2023-08-07T11:10:37.812Z,99899.31
2023-08-07T11:11:46.116Z,99885.22
2023-08-07T11:12:49.822Z,99875.72
2023-08-07T11:13:52.815Z,99888.72
2023-08-07T11:14:58.132Z,99905.41
2023-08-07T11:16:03.250Z,99861.66
2023-08-07T11:17:06.800Z,99885.03
2023-08-07T11:18:10.132Z,99889.53
2023-08-07T11:19:15.399Z,99890.62
2023-08-07T11:20:18.426Z,99893.94
2023-08-07T11:21:21.666Z,99896.81
2023-08-07T11:22:24.634Z,99891.69
2023-08-07T11:23:28.427Z,99887.03
2023-08-07T11:24:31.370Z,99898.94
2023-08-07T11:25:34.178Z,99896.81
2023-08-07T11:26:36.938Z,99889.63
2023-08-07T11:27:39.678Z,99893.22
2023-08-07T11:28:42.387Z,99892.56
2023-08-07T11:29:49.735Z,99894.66
2023-08-07T11:30:54.377Z,99884.41
2023-08-07T11:31:57.688Z,99822.56
2023-08-07T11:33:03.197Z,99904.91
2023-08-07T11:34:05.976Z,99911.34
2023-08-07T11:35:09.460Z,99873.25
2023-08-07T11:36:13.961Z,99903.56
2023-08-07T11:37:18.488Z,99909.63
2023-08-07T11:38:32.202Z,99910.47
2023-08-07T11:39:43.113Z,99903.94
2023-08-07T11:40:46.105Z,99910.88
2023-08-07T11:41:49.301Z,99891.56
2023-08-07T11:42:52.016Z,99915.81
2023-08-07T11:43:54.694Z,99917.37
2023-08-07T11:44:57.363Z,99924.09
2023-08-07T11:46:02.840Z,99925.13
2023-08-07T11:47:06.222Z,99936.16
2023-08-07T11:48:08.870Z,99916.66
2023-08-07T11:49:12.416Z,99927.72
2023-08-07T11:50:15.329Z,99866.84
2023-08-07T11:51:18.334Z,99932.78
2023-08-07T11:52:21.325Z,99929.06
2023-08-07T11:53:28.070Z,99924.75
2023-08-07T11:54:39.909Z,99930.84
2023-08-07T11:55:58.322Z,99930.84
2023-08-07T11:57:01.566Z,99844.31
2023-08-07T11:58:04.865Z,99933.81
2023-08-07T11:59:08.141Z,99930.75
2023-08-07T12:00:14.439Z,99938.47
2023-08-07T12:01:22.163Z,99937.63
2023-08-07T12:02:26.613Z,99938.66
2023-08-07T12:03:31.229Z,99939.22
2023-08-07T12:04:36.900Z,99940.81
2023-08-07T12:05:42.146Z,99923.63
2023-08-07T12:06:58.604Z,99939.66
2023-08-07T12:08:01.894Z,99937.44
2023-08-07T12:09:04.828Z,99936.56
2023-08-07T12:10:12.074Z,99935.25
2023-08-07T12:11:16.827Z,99931.63
2023-08-07T12:12:20.753Z,99933.06
2023-08-07T12:13:29.779Z,99928.91
2023-08-07T12:14:32.821Z,99937.47
2023-08-07T12:15:35.521Z,99897.47
2023-08-07T12:16:38.414Z,99945.31
2023-08-07T12:17:41.474Z,99947.16
2023-08-07T12:18:49.156Z,99931.19
2023-08-07T12:19:51.911Z,99924.06
2023-08-07T12:21:00.491Z,99936.12
2023-08-07T12:22:05.271Z,99940.16
2023-08-07T12:23:15.569Z,99944.31
2023-08-07T12:24:19.271Z,99938.94
2023-08-07T12:25:21.945Z,99901.28
2023-08-07T12:26:25.076Z,99947.00
2023-08-07T12:27:27.824Z,99947.19
2023-08-07T12:28:30.771Z,99954.16
2023-08-07T12:29:33.477Z,99948.53
2023-08-07T12:30:37.243Z,99945.75
2023-08-07T12:31:40.342Z,99946.72
2023-08-07T12:32:43.196Z,99951.44
2023-08-07T12:33:46.259Z,99943.56